Time;durP1;ratioP1;P1;durP2;ratioP2;P2;SDS_P1;SDS_P2;PMS_P1;PMS_P2;Temp;Humidity;BMP_temperature;BMP_pressure;BME280_temperature;BME280_humidity;BME280_pressure;Samples;Min_cycle;Max_cycle;Signal;HPM_P1;HPM_P2
2023/08/18 00:01:29;;;;;;;29.83;26.73;;;25.20;99.90;;;;;;4830900;29;20213;-85
2023/08/18 00:03:58;;;;;;;30.27;27.50;;;25.20;99.90;;;;;;4816314;29;20189;-80
2023/08/18 00:06:24;;;;;;;29.30;26.60;;;25.20;99.90;;;;;;4818331;29;20666;-85
2023/08/18 00:08:50;;;;;;;28.50;25.67;;;25.20;99.90;;;;;;4818122;29;20492;-80
2023/08/18 00:11:16;;;;;;;29.50;26.80;;;25.10;99.90;;;;;;4816642;29;20445;-85
2023/08/18 00:13:42;;;;;;;29.37;26.50;;;25.10;99.90;;;;;;4817601;29;20409;-84
2023/08/18 00:16:08;;;;;;;29.37;26.50;;;25.10;99.90;;;;;;4815985;29;20212;-80
2023/08/18 00:18:33;;;;;;;30.13;27.33;;;25.10;99.90;;;;;;4816043;29;20186;-80
2023/08/18 00:20:59;;;;;;;31.57;28.37;;;25.00;99.90;;;;;;4816603;29;20469;-85
2023/08/18 00:23:25;;;;;;;29.80;26.83;;;25.00;99.90;;;;;;4816464;29;20232;-80
2023/08/18 00:25:50;;;;;;;30.03;26.90;;;25.00;99.90;;;;;;4817695;29;20217;-85
2023/08/18 00:28:16;;;;;;;32.50;29.07;;;25.00;99.90;;;;;;4816387;29;20190;-85
2023/08/18 00:30:42;;;;;;;30.20;27.43;;;24.90;99.90;;;;;;4816165;29;20244;-80
2023/08/18 00:33:07;;;;;;;30.10;27.30;;;24.90;99.90;;;;;;4816043;29;20434;-84
2023/08/18 00:35:34;;;;;;;31.90;28.40;;;24.90;99.90;;;;;;4816463;29;20321;-85
2023/08/18 00:38:00;;;;;;;29.73;26.70;;;24.90;99.90;;;;;;4816182;29;20288;-85
2023/08/18 00:40:25;;;;;;;31.60;28.67;;;24.90;99.90;;;;;;4816371;29;20990;-85
2023/08/18 00:42:52;;;;;;;32.07;29.17;;;24.90;99.90;;;;;;4830864;29;20216;-81
2023/08/18 00:45:17;;;;;;;32.30;29.30;;;24.90;99.90;;;;;;4818081;29;20204;-84
2023/08/18 00:47:44;;;;;;;31.50;28.57;;;24.90;99.90;;;;;;4830730;29;20442;-85
2023/08/18 00:50:11;;;;;;;30.47;27.57;;;24.90;99.90;;;;;;4817556;29;20213;-80
2023/08/18 00:52:39;;;;;;;31.20;28.23;;;24.80;99.90;;;;;;4815574;29;20491;-79
2023/08/18 00:55:06;;;;;;;31.70;28.60;;;24.80;99.90;;;;;;4816173;29;21086;-79
2023/08/18 00:57:34;;;;;;;30.50;27.63;;;24.80;99.90;;;;;;4817234;29;21062;-80
2023/08/18 00:59:59;;;;;;;32.50;29.23;;;24.80;99.90;;;;;;4817014;29;20801;-84
2023/08/18 01:02:25;;;;;;;31.10;28.27;;;24.80;99.90;;;;;;4814751;29;20489;-85
2023/08/18 01:04:52;;;;;;;31.80;28.80;;;24.80;99.90;;;;;;4817109;29;20202;-85
2023/08/18 01:07:18;;;;;;;32.00;28.80;;;24.80;99.90;;;;;;4817046;29;20178;-85
2023/08/18 01:09:45;;;;;;;34.00;30.77;;;24.70;99.90;;;;;;4817143;29;21009;-80
2023/08/18 01:12:29;;;;;;;32.20;29.30;;;24.70;99.90;;;;;;4815176;29;20243;-80
2023/08/18 01:15:16;;;;;;;32.17;28.97;;;24.70;99.90;;;;;;4830629;29;20480;-80
2023/08/18 01:17:51;;;;;;;33.67;30.07;;;24.70;99.90;;;;;;4816782;29;20444;-84
2023/08/18 01:20:18;;;;;;;32.07;28.83;;;24.70;99.90;;;;;;4815810;29;20444;-85
2023/08/18 01:22:45;;;;;;;32.33;29.23;;;24.60;99.90;;;;;;4816251;29;20596;-85
2023/08/18 01:25:11;;;;;;;33.00;30.03;;;24.60;99.90;;;;;;4815658;29;20441;-85
2023/08/18 01:27:37;;;;;;;32.97;29.73;;;24.60;99.90;;;;;;4830066;29;20939;-85
2023/08/18 01:30:04;;;;;;;31.43;28.43;;;24.60;99.90;;;;;;4816860;29;20221;-80
2023/08/18 01:32:35;;;;;;;32.63;29.53;;;24.60;99.90;;;;;;4815513;29;20750;-80
2023/08/18 01:35:02;;;;;;;29.80;26.80;;;24.60;99.90;;;;;;4816532;29;20480;-80
2023/08/18 01:37:30;;;;;;;30.73;27.83;;;24.60;99.90;;;;;;4815330;29;20633;-80
2023/08/18 01:39:58;;;;;;;30.80;27.97;;;24.50;99.90;;;;;;4816994;29;21179;-85
2023/08/18 01:42:24;;;;;;;30.47;27.77;;;24.50;99.90;;;;;;4816608;29;20449;-85
2023/08/18 01:44:50;;;;;;;30.47;27.53;;;24.50;99.90;;;;;;4815449;29;21038;-80
2023/08/18 01:47:16;;;;;;;28.63;25.80;;;24.40;99.90;;;;;;4816261;29;20457;-80
2023/08/18 01:49:41;;;;;;;29.40;26.37;;;24.40;99.90;;;;;;4816296;29;20201;-85
2023/08/18 01:52:07;;;;;;;28.43;25.77;;;24.40;99.90;;;;;;4816724;29;20651;-85
2023/08/18 01:54:33;;;;;;;29.67;26.53;;;24.40;99.90;;;;;;4814834;29;20270;-80
2023/08/18 01:56:59;;;;;;;28.27;25.53;;;24.40;99.90;;;;;;4816448;29;20186;-85
2023/08/18 01:59:24;;;;;;;29.33;26.53;;;24.40;99.90;;;;;;4816343;29;20406;-80
2023/08/18 02:01:50;;;;;;;28.67;25.87;;;24.40;99.90;;;;;;4816297;29;20500;-80
2023/08/18 02:04:16;;;;;;;28.07;25.40;;;24.40;99.90;;;;;;4813809;29;20215;-85
2023/08/18 02:06:41;;;;;;;27.87;25.27;;;24.40;99.90;;;;;;4814740;29;20196;-85
2023/08/18 02:09:07;;;;;;;28.47;25.70;;;24.30;99.90;;;;;;4816184;29;20173;-83
2023/08/18 02:11:33;;;;;;;29.00;26.17;;;24.40;99.90;;;;;;4816495;29;20215;-79
2023/08/18 02:13:58;;;;;;;27.60;25.07;;;24.30;99.90;;;;;;4815995;29;20614;-81
2023/08/18 02:16:24;;;;;;;29.10;26.20;;;24.30;99.90;;;;;;4816284;29;20214;-80
2023/08/18 02:18:50;;;;;;;28.40;25.90;;;24.30;99.90;;;;;;4814816;29;20415;-80
2023/08/18 02:21:15;;;;;;;27.30;24.80;;;24.20;99.90;;;;;;4816762;29;20215;-80
2023/08/18 02:23:41;;;;;;;29.13;26.30;;;24.20;99.90;;;;;;4814737;29;20703;-84
2023/08/18 02:26:07;;;;;;;28.60;26.00;;;24.20;99.90;;;;;;4816095;29;20232;-80
2023/08/18 02:28:33;;;;;;;30.37;27.33;;;24.20;99.90;;;;;;4814615;29;20652;-83
2023/08/18 02:31:07;;;;;;;30.33;27.43;;;24.20;99.90;;;;;;4816284;29;20211;-80
2023/08/18 02:33:34;;;;;;;28.23;25.63;;;24.20;99.90;;;;;;4814418;29;21010;-79
2023/08/18 02:36:00;;;;;;;29.20;26.47;;;24.20;99.90;;;;;;4816104;29;20861;-85
2023/08/18 02:38:28;;;;;;;29.70;26.87;;;24.20;99.90;;;;;;4816103;29;20479;-84
2023/08/18 02:40:54;;;;;;;28.50;25.90;;;24.20;99.90;;;;;;4817957;29;20487;-84
2023/08/18 02:43:21;;;;;;;30.73;27.70;;;24.10;99.90;;;;;;4818016;29;20504;-85
2023/08/18 02:45:46;;;;;;;30.67;27.63;;;24.10;99.90;;;;;;4819585;29;20484;-85
2023/08/18 02:48:12;;;;;;;30.10;27.20;;;24.10;99.90;;;;;;4819380;29;20441;-85
2023/08/18 02:50:39;;;;;;;28.40;25.70;;;24.10;99.90;;;;;;4819005;29;20960;-80
2023/08/18 02:53:06;;;;;;;30.07;26.83;;;24.10;99.90;;;;;;4817364;29;20717;-85
2023/08/18 02:55:35;;;;;;;29.30;26.43;;;24.10;99.90;;;;;;4819193;29;20895;-81
2023/08/18 02:58:01;;;;;;;31.13;28.00;;;24.10;99.90;;;;;;4817666;29;20765;-85
2023/08/18 03:00:27;;;;;;;29.10;26.30;;;24.00;99.90;;;;;;4819910;29;20917;-85
2023/08/18 03:02:53;;;;;;;31.57;28.40;;;24.00;99.90;;;;;;4832314;29;20916;-80
2023/08/18 03:05:19;;;;;;;29.33;26.53;;;24.00;99.90;;;;;;4817416;29;20577;-85
2023/08/18 03:07:45;;;;;;;30.37;27.33;;;23.90;99.90;;;;;;4818807;29;20444;-80
2023/08/18 03:10:11;;;;;;;29.97;27.07;;;23.80;99.90;;;;;;4817767;29;20580;-85
2023/08/18 03:12:37;;;;;;;30.93;27.63;;;23.70;99.90;;;;;;4818848;29;20215;-80
2023/08/18 03:15:04;;;;;;;30.77;27.70;;;23.50;99.90;;;;;;4817451;29;20542;-80
2023/08/18 03:17:29;;;;;;;31.13;28.13;;;23.50;99.90;;;;;;4816926;29;20245;-80
2023/08/18 03:19:55;;;;;;;35.17;30.13;;;23.40;99.90;;;;;;4817267;29;20871;-80
2023/08/18 03:22:21;;;;;;;33.40;29.80;;;23.50;99.90;;;;;;4818367;29;20448;-85
2023/08/18 03:24:47;;;;;;;33.67;30.37;;;23.60;99.90;;;;;;4818765;29;20210;-86
2023/08/18 03:27:13;;;;;;;33.40;30.23;;;23.60;99.90;;;;;;4818281;29;20598;-86
2023/08/18 03:29:39;;;;;;;35.00;31.43;;;23.60;99.90;;;;;;4817613;29;20786;-80
2023/08/18 03:32:05;;;;;;;32.67;29.30;;;23.70;99.90;;;;;;4817216;29;20278;-80
2023/08/18 03:34:31;;;;;;;32.53;29.13;;;23.70;99.90;;;;;;4817101;29;20221;-85
2023/08/18 03:36:57;;;;;;;34.37;30.87;;;23.70;99.90;;;;;;4817071;29;20802;-81
2023/08/18 03:39:22;;;;;;;37.13;33.27;;;23.70;99.90;;;;;;4818442;29;20614;-85
2023/08/18 03:41:48;;;;;;;38.17;32.70;;;23.60;99.90;;;;;;4817383;29;20184;-85
2023/08/18 03:44:14;;;;;;;33.23;29.83;;;23.60;99.90;;;;;;4817979;29;20195;-80
2023/08/18 03:46:39;;;;;;;35.10;31.60;;;23.60;99.90;;;;;;4818178;29;20440;-80
2023/08/18 03:49:06;;;;;;;33.87;30.37;;;23.70;99.90;;;;;;4815889;29;20626;-80
2023/08/18 03:51:32;;;;;;;32.70;29.70;;;23.70;99.90;;;;;;4816270;29;20361;-85
2023/08/18 03:53:58;;;;;;;33.50;29.83;;;23.60;99.90;;;;;;4818179;29;20998;-85
2023/08/18 03:56:24;;;;;;;37.50;33.40;;;23.60;99.90;;;;;;4831896;29;20550;-79
2023/08/18 03:58:49;;;;;;;33.87;30.47;;;23.60;99.90;;;;;;4817773;29;20177;-81
2023/08/18 04:01:15;;;;;;;38.80;32.20;;;23.60;99.90;;;;;;4831739;29;20471;-85
2023/08/18 04:03:43;;;;;;;32.83;29.67;;;23.60;99.90;;;;;;4815627;29;20221;-84
2023/08/18 04:06:12;;;;;;;31.57;28.57;;;23.60;99.90;;;;;;4816295;29;20264;-80
2023/08/18 04:08:43;;;;;;;33.67;30.27;;;23.60;99.90;;;;;;4817781;29;20428;-85
2023/08/18 04:11:12;;;;;;;33.77;30.47;;;23.60;99.90;;;;;;4818012;29;20441;-79
2023/08/18 04:13:39;;;;;;;32.70;29.50;;;23.60;99.90;;;;;;4816451;29;20436;-79
2023/08/18 04:16:04;;;;;;;33.17;29.87;;;23.60;99.90;;;;;;4816302;29;20782;-80
2023/08/18 04:18:30;;;;;;;34.13;30.70;;;23.60;99.90;;;;;;4816225;29;21089;-79
2023/08/18 04:20:56;;;;;;;35.00;31.30;;;23.60;99.90;;;;;;4816228;29;20223;-80
2023/08/18 04:23:21;;;;;;;33.43;30.23;;;23.70;99.90;;;;;;4829270;29;20192;-85
2023/08/18 04:25:47;;;;;;;33.60;30.30;;;23.70;99.90;;;;;;4815861;29;20242;-80
2023/08/18 04:28:13;;;;;;;35.87;32.17;;;23.70;99.90;;;;;;4817761;29;20179;-85
2023/08/18 04:30:39;;;;;;;34.00;30.70;;;23.70;99.90;;;;;;4816461;29;20309;-85
2023/08/18 04:33:04;;;;;;;33.23;29.90;;;23.70;99.90;;;;;;4816051;29;20283;-85
2023/08/18 04:35:30;;;;;;;35.27;31.73;;;23.80;99.90;;;;;;4816316;29;20495;-85
2023/08/18 04:37:56;;;;;;;34.03;30.67;;;23.80;99.90;;;;;;4817415;29;20704;-79
2023/08/18 04:40:23;;;;;;;33.63;30.23;;;23.80;99.90;;;;;;4816152;29;20278;-85
2023/08/18 04:42:49;;;;;;;32.90;29.80;;;23.80;99.90;;;;;;4816230;29;20204;-80
2023/08/18 04:45:14;;;;;;;34.20;30.83;;;23.80;99.90;;;;;;4824757;29;20531;-84
2023/08/18 04:47:40;;;;;;;34.67;31.17;;;23.70;99.90;;;;;;4816324;29;20429;-80
2023/08/18 04:50:06;;;;;;;33.47;30.13;;;23.80;99.90;;;;;;4831397;29;20219;-84
2023/08/18 04:52:32;;;;;;;33.33;30.00;;;23.80;99.90;;;;;;4834135;29;20697;-80
2023/08/18 04:54:58;;;;;;;34.20;30.90;;;23.80;99.90;;;;;;4848344;29;20487;-79
2023/08/18 04:57:23;;;;;;;35.17;31.67;;;23.80;99.90;;;;;;4848093;29;20279;-80
2023/08/18 04:59:49;;;;;;;35.17;30.03;;;23.80;99.90;;;;;;4834821;29;20204;-84
2023/08/18 05:02:15;;;;;;;33.33;30.23;;;23.80;99.90;;;;;;4833110;29;20188;-80
2023/08/18 05:04:41;;;;;;;32.90;29.80;;;23.80;99.90;;;;;;4834389;29;20260;-80
2023/08/18 05:07:07;;;;;;;31.47;28.33;;;23.70;99.90;;;;;;4831531;29;20195;-80
2023/08/18 05:09:34;;;;;;;32.37;29.23;;;23.70;99.90;;;;;;4833075;29;20343;-83
2023/08/18 05:11:59;;;;;;;32.83;29.60;;;23.60;99.90;;;;;;4825037;29;20440;-85
2023/08/18 05:14:25;;;;;;;34.83;31.37;;;23.50;99.90;;;;;;4815186;29;20577;-80
2023/08/18 05:16:51;;;;;;;33.23;29.93;;;23.50;99.90;;;;;;4814680;29;20252;-80
2023/08/18 05:19:17;;;;;;;33.20;30.10;;;23.40;99.90;;;;;;4816365;29;20177;-80
2023/08/18 05:21:42;;;;;;;34.07;30.93;;;23.40;99.90;;;;;;4813849;29;20238;-85
2023/08/18 05:24:08;;;;;;;35.23;31.47;;;23.40;99.90;;;;;;4815339;29;20180;-84
2023/08/18 05:26:34;;;;;;;32.07;28.57;;;23.40;99.90;;;;;;4814839;29;20262;-80
2023/08/18 05:28:59;;;;;;;32.90;29.80;;;23.40;99.90;;;;;;4815653;29;20362;-80
2023/08/18 05:31:25;;;;;;;31.30;28.17;;;23.50;99.90;;;;;;4813635;29;20994;-85
2023/08/18 05:33:51;;;;;;;32.87;29.53;;;23.50;99.90;;;;;;4815261;29;20195;-80
2023/08/18 05:36:17;;;;;;;33.93;30.37;;;23.50;99.90;;;;;;4814374;29;20213;-81
2023/08/18 05:38:43;;;;;;;31.47;28.20;;;23.60;99.90;;;;;;4813604;29;20224;-85
2023/08/18 05:41:13;;;;;;;30.60;27.67;;;23.60;99.90;;;;;;4813523;29;20440;-80
2023/08/18 05:43:40;;;;;;;31.90;28.70;;;23.60;99.90;;;;;;4817107;29;20353;-85
2023/08/18 05:46:06;;;;;;;34.17;30.70;;;23.70;99.90;;;;;;4838603;29;20627;-85
2023/08/18 05:48:32;;;;;;;30.50;27.47;;;23.70;99.90;;;;;;4814493;29;21096;-80
2023/08/18 05:51:02;;;;;;;32.23;29.23;;;23.80;99.90;;;;;;4810904;29;20455;-80
2023/08/18 05:53:31;;;;;;;29.60;26.80;;;23.80;99.90;;;;;;4812245;29;20701;-85
2023/08/18 05:55:56;;;;;;;30.10;27.30;;;23.80;99.90;;;;;;4813650;29;20473;-84
2023/08/18 05:58:22;;;;;;;30.70;27.70;;;23.90;99.90;;;;;;4814005;29;20748;-80
2023/08/18 06:00:51;;;;;;;30.37;27.33;;;23.90;99.90;;;;;;4827694;29;20299;-79
2023/08/18 06:03:19;;;;;;;29.17;26.37;;;23.90;99.90;;;;;;4813709;29;20209;-81
2023/08/18 06:05:49;;;;;;;30.93;27.70;;;24.00;99.90;;;;;;4811670;29;20559;-80
2023/08/18 06:08:15;;;;;;;30.60;27.67;;;23.90;99.90;;;;;;4815492;29;20464;-85
2023/08/18 06:10:41;;;;;;;31.07;27.87;;;23.90;99.90;;;;;;4818274;29;20953;-85
2023/08/18 06:13:07;;;;;;;31.73;28.50;;;24.00;99.90;;;;;;4812921;29;20440;-80
2023/08/18 06:15:33;;;;;;;34.03;30.83;;;24.00;99.90;;;;;;4812403;29;20430;-85
2023/08/18 06:17:59;;;;;;;31.77;28.57;;;24.00;99.90;;;;;;4811563;29;20946;-85
2023/08/18 06:20:24;;;;;;;32.57;29.47;;;24.00;99.90;;;;;;4811160;29;20829;-80
2023/08/18 06:22:50;;;;;;;30.97;28.17;;;24.00;99.90;;;;;;4811233;29;20462;-85
2023/08/18 06:25:16;;;;;;;33.03;29.83;;;24.00;99.90;;;;;;4812975;29;20287;-85
2023/08/18 06:27:41;;;;;;;31.37;28.27;;;24.00;99.90;;;;;;4813492;29;20189;-81
2023/08/18 06:30:07;;;;;;;31.77;28.77;;;24.00;99.90;;;;;;4827021;29;20237;-85
2023/08/18 06:32:33;;;;;;;32.37;29.17;;;24.00;99.90;;;;;;4827043;29;20287;-85
2023/08/18 06:34:59;;;;;;;31.10;28.07;;;24.00;99.90;;;;;;4811550;29;20488;-85
2023/08/18 06:37:25;;;;;;;31.10;28.30;;;24.00;99.90;;;;;;4808051;29;20986;-80
2023/08/18 06:39:51;;;;;;;30.00;27.20;;;24.10;99.90;;;;;;4811066;29;20243;-80
2023/08/18 06:42:17;;;;;;;29.93;27.07;;;24.10;99.90;;;;;;4809782;29;20802;-80
2023/08/18 06:44:42;;;;;;;29.77;26.80;;;24.10;99.90;;;;;;4808704;29;20712;-85
2023/08/18 06:47:08;;;;;;;29.17;26.23;;;24.10;99.90;;;;;;4811647;29;20224;-80
2023/08/18 06:49:34;;;;;;;32.07;28.67;;;24.20;99.90;;;;;;4809005;29;20205;-80
2023/08/18 06:51:59;;;;;;;31.20;28.20;;;24.20;99.90;;;;;;4809469;29;20196;-80
2023/08/18 06:54:25;;;;;;;29.13;26.30;;;24.20;99.90;;;;;;4804325;29;20246;-79
2023/08/18 06:56:51;;;;;;;32.07;28.70;;;24.20;99.90;;;;;;4808958;29;20200;-87
2023/08/18 06:59:17;;;;;;;30.80;27.77;;;24.20;99.90;;;;;;4809236;29;20281;-80
2023/08/18 07:01:43;;;;;;;31.37;28.40;;;24.30;99.90;;;;;;4807097;29;20579;-79
2023/08/18 07:04:09;;;;;;;30.40;27.50;;;24.20;99.90;;;;;;4808305;29;21023;-80
2023/08/18 07:06:35;;;;;;;30.60;27.57;;;24.20;99.90;;;;;;4809954;29;20278;-80
2023/08/18 07:09:01;;;;;;;31.57;28.50;;;24.20;99.90;;;;;;4809250;29;20422;-86
2023/08/18 07:11:27;;;;;;;31.57;28.47;;;24.20;99.90;;;;;;4810728;29;20209;-80
2023/08/18 07:13:52;;;;;;;31.87;28.80;;;24.20;99.90;;;;;;4810599;29;20908;-80
2023/08/18 07:16:18;;;;;;;30.30;27.30;;;24.20;99.90;;;;;;4810280;29;20908;-81
2023/08/18 07:18:44;;;;;;;30.13;27.23;;;24.20;99.90;;;;;;4800212;29;20472;-82
2023/08/18 07:21:09;;;;;;;27.30;24.50;;;24.30;99.90;;;;;;4803793;29;20201;-87
2023/08/18 07:23:35;;;;;;;27.80;25.10;;;24.30;99.90;;;;;;4803903;29;20212;-80
2023/08/18 07:26:02;;;;;;;28.87;26.07;;;24.30;99.90;;;;;;4800811;29;20285;-80
2023/08/18 07:28:28;;;;;;;29.17;26.47;;;24.30;99.90;;;;;;4799437;29;20236;-80
2023/08/18 07:30:54;;;;;;;28.30;25.70;;;24.30;99.90;;;;;;4809423;29;20445;-86
2023/08/18 07:33:20;;;;;;;27.43;24.93;;;24.40;99.90;;;;;;4807671;29;20245;-86
2023/08/18 07:35:46;;;;;;;29.37;26.57;;;24.40;99.90;;;;;;4802110;29;20225;-86
2023/08/18 07:38:12;;;;;;;27.97;25.30;;;24.40;99.90;;;;;;4809825;29;20450;-85
2023/08/18 07:40:37;;;;;;;29.50;26.50;;;24.40;99.90;;;;;;4816020;29;20293;-80
2023/08/18 07:43:03;;;;;;;27.47;24.53;;;24.40;99.90;;;;;;4814267;29;20449;-80
2023/08/18 07:45:29;;;;;;;26.70;24.03;;;24.50;99.90;;;;;;4813846;29;20228;-86
2023/08/18 07:47:57;;;;;;;28.83;26.10;;;24.50;99.90;;;;;;4812539;29;20806;-86
2023/08/18 07:50:23;;;;;;;25.63;23.13;;;24.50;99.90;;;;;;4814976;29;20209;-85
2023/08/18 07:52:49;;;;;;;26.53;24.07;;;24.50;99.90;;;;;;4811818;29;20492;-85
2023/08/18 07:55:15;;;;;;;26.60;24.13;;;24.60;99.90;;;;;;4814650;29;20488;-79
2023/08/18 07:57:41;;;;;;;26.70;24.10;;;24.60;99.90;;;;;;4806201;29;20457;-86
2023/08/18 08:00:10;;;;;;;26.37;23.87;;;24.60;99.90;;;;;;4812486;29;20880;-85
2023/08/18 08:02:36;;;;;;;26.73;24.17;;;24.60;99.90;;;;;;4829381;29;20735;-80
2023/08/18 08:05:05;;;;;;;27.17;24.67;;;24.70;99.90;;;;;;4831046;29;20531;-81
2023/08/18 08:07:33;;;;;;;26.80;24.20;;;24.70;99.90;;;;;;4814818;29;20273;-80
2023/08/18 08:10:03;;;;;;;26.77;24.07;;;24.80;99.90;;;;;;4816909;29;20532;-85
2023/08/18 08:12:31;;;;;;;26.20;23.67;;;24.80;99.90;;;;;;4815713;29;20494;-80
2023/08/18 08:14:58;;;;;;;26.93;24.40;;;24.90;99.90;;;;;;4816176;29;20512;-80
2023/08/18 08:17:24;;;;;;;25.30;22.87;;;25.00;99.90;;;;;;4820245;29;21022;-80
2023/08/18 08:19:50;;;;;;;23.27;21.07;;;25.10;99.90;;;;;;4806759;29;20965;-81
2023/08/18 08:22:16;;;;;;;24.13;21.63;;;25.20;99.90;;;;;;4803296;29;20789;-81
2023/08/18 08:24:43;;;;;;;23.20;21.20;;;25.20;99.90;;;;;;4805316;29;20516;-85
2023/08/18 08:27:08;;;;;;;24.83;22.40;;;25.30;99.90;;;;;;4804475;29;20190;-80
2023/08/18 08:29:34;;;;;;;22.77;20.67;;;25.40;99.90;;;;;;4803276;29;20465;-80
2023/08/18 08:32:00;;;;;;;23.20;20.90;;;25.50;99.90;;;;;;4804864;29;20245;-80
2023/08/18 08:34:26;;;;;;;23.27;21.03;;;25.50;99.90;;;;;;4796713;29;20214;-86
2023/08/18 08:36:52;;;;;;;22.63;20.60;;;25.70;99.90;;;;;;4807712;29;20829;-80
2023/08/18 08:39:17;;;;;;;19.50;17.93;;;25.80;99.90;;;;;;4811219;29;20801;-85
2023/08/18 08:41:43;;;;;;;20.63;18.83;;;26.00;99.90;;;;;;4805286;29;20251;-85
2023/08/18 08:44:09;;;;;;;19.13;16.63;;;26.10;99.90;;;;;;4807679;29;20194;-83
2023/08/18 08:46:37;;;;;;;18.27;16.67;;;26.20;99.90;;;;;;4805731;29;20209;-80
2023/08/18 08:49:05;;;;;;;15.57;14.10;;;26.30;99.90;;;;;;4809442;29;20189;-80
2023/08/18 08:51:35;;;;;;;15.60;14.10;;;26.40;99.90;;;;;;4807723;29;20999;-79
2023/08/18 08:54:03;;;;;;;16.33;14.90;;;26.50;99.90;;;;;;4805777;29;20751;-85
2023/08/18 08:56:32;;;;;;;15.80;14.23;;;26.60;99.90;;;;;;4807807;29;20572;-85
2023/08/18 08:58:58;;;;;;;16.43;15.03;;;26.80;99.90;;;;;;4803461;29;21002;-80
2023/08/18 09:01:24;;;;;;;13.73;12.53;;;26.80;99.90;;;;;;4807120;29;20442;-84
2023/08/18 09:03:51;;;;;;;13.67;12.50;;;26.90;99.90;;;;;;4805491;29;20421;-80
2023/08/18 09:06:17;;;;;;;14.53;13.40;;;27.00;99.90;;;;;;4807873;29;20688;-79
2023/08/18 09:08:42;;;;;;;13.97;12.77;;;27.10;99.90;;;;;;4821020;29;20540;-84
2023/08/18 09:11:09;;;;;;;13.80;12.70;;;27.20;99.90;;;;;;4807406;29;20630;-80
2023/08/18 09:13:35;;;;;;;13.77;12.67;;;27.30;99.90;;;;;;4807336;29;20243;-84
2023/08/18 09:16:05;;;;;;;14.60;13.40;;;27.40;99.90;;;;;;4821698;29;20538;-80
2023/08/18 09:18:32;;;;;;;14.73;13.53;;;27.40;99.90;;;;;;4802782;29;20580;-80
2023/08/18 09:21:00;;;;;;;15.03;13.83;;;27.50;99.90;;;;;;4800620;29;20858;-85
2023/08/18 09:23:27;;;;;;;14.13;12.73;;;27.50;99.90;;;;;;4811713;29;20452;-80
2023/08/18 09:25:57;;;;;;;15.27;14.07;;;27.60;99.90;;;;;;4811073;29;20506;-85
2023/08/18 09:28:23;;;;;;;15.80;14.50;;;27.60;99.90;;;;;;4810327;29;20958;-81
2023/08/18 09:30:49;;;;;;;14.97;13.67;;;27.60;99.90;;;;;;4809687;29;20449;-80
2023/08/18 09:33:15;;;;;;;16.77;15.30;;;27.70;99.90;;;;;;4810179;29;20450;-85
2023/08/18 09:35:40;;;;;;;18.47;16.90;;;27.70;99.90;;;;;;4811625;29;20467;-85
2023/08/18 09:38:11;;;;;;;18.67;16.90;;;27.70;99.90;;;;;;4812325;29;20293;-83
2023/08/18 09:40:36;;;;;;;19.70;18.03;;;27.80;99.90;;;;;;4811751;29;20203;-83
2023/08/18 09:43:02;;;;;;;18.10;16.57;;;27.80;99.90;;;;;;4814140;29;20882;-80
2023/08/18 09:45:28;;;;;;;17.33;15.47;;;27.80;99.90;;;;;;4827320;29;20217;-80
2023/08/18 09:47:56;;;;;;;17.47;16.00;;;27.80;99.90;;;;;;4813037;29;20210;-85
2023/08/18 09:50:25;;;;;;;17.57;16.10;;;27.80;99.90;;;;;;4816312;29;20442;-80
2023/08/18 09:52:54;;;;;;;15.77;14.43;;;27.80;99.90;;;;;;4807316;29;20547;-80
2023/08/18 09:55:42;;;;;;;16.33;15.03;;;27.80;99.90;;;;;;4796209;29;20495;-80
2023/08/18 09:58:34;;;;;;;15.20;13.90;;;27.80;99.90;;;;;;4809119;29;20457;-80
2023/08/18 10:01:02;;;;;;;15.00;13.50;;;27.80;99.90;;;;;;4813170;29;20807;-85
2023/08/18 10:03:31;;;;;;;15.73;14.43;;;27.90;99.90;;;;;;4813410;29;20425;-80
2023/08/18 10:05:57;;;;;;;14.30;13.13;;;27.90;99.90;;;;;;4812602;29;20710;-81
2023/08/18 10:08:23;;;;;;;13.93;12.67;;;27.90;99.90;;;;;;4810820;29;20432;-85
2023/08/18 10:10:50;;;;;;;15.00;13.50;;;27.90;99.90;;;;;;4810039;29;20776;-81
2023/08/18 10:13:16;;;;;;;14.60;13.50;;;27.90;99.90;;;;;;4812115;29;20435;-80
2023/08/18 10:15:43;;;;;;;14.70;13.43;;;27.90;99.90;;;;;;4810429;29;21253;-79
2023/08/18 10:18:11;;;;;;;14.70;13.50;;;28.00;99.90;;;;;;4811622;29;20621;-85
2023/08/18 10:20:53;;;;;;;14.67;13.37;;;28.00;99.90;;;;;;4812746;29;20447;-84
2023/08/18 10:23:22;;;;;;;13.73;12.63;;;28.20;99.90;;;;;;4810395;29;20866;-80
2023/08/18 10:25:52;;;;;;;15.00;13.50;;;28.20;99.90;;;;;;4812050;29;20968;-85
2023/08/18 10:28:19;;;;;;;13.93;12.90;;;28.30;99.90;;;;;;4810952;29;20445;-80
2023/08/18 10:31:14;;;;;;;12.60;11.70;;;28.30;99.90;;;;;;4810969;29;21085;-85
2023/08/18 10:33:44;;;;;;;17.60;14.10;;;28.40;99.90;;;;;;4809400;29;20451;-80
2023/08/18 10:36:12;;;;;;;14.17;13.10;;;28.40;99.90;;;;;;4805160;29;20557;-80
2023/08/18 10:38:39;;;;;;;13.77;12.60;;;28.50;99.90;;;;;;4801581;29;20788;-85
2023/08/18 10:41:05;;;;;;;12.90;11.90;;;28.50;99.90;;;;;;4806157;29;20650;-80
2023/08/18 10:43:42;;;;;;;13.77;12.70;;;28.50;99.90;;;;;;4803267;29;20485;-80
2023/08/18 10:46:12;;;;;;;12.83;11.83;;;28.60;99.90;;;;;;4817308;29;20801;-85
2023/08/18 10:48:38;;;;;;;15.43;13.83;;;28.70;99.90;;;;;;4812741;29;20447;-81
2023/08/18 10:51:03;;;;;;;12.73;11.53;;;28.80;99.90;;;;;;4825444;29;20747;-81
2023/08/18 10:53:37;;;;;;;14.20;12.77;;;28.70;99.90;;;;;;4810160;29;20491;-84
2023/08/18 10:56:06;;;;;;;14.17;13.07;;;28.80;99.90;;;;;;4805769;29;20229;-85
2023/08/18 10:58:32;;;;;;;13.03;11.80;;;28.90;99.90;;;;;;4812926;29;20923;-85
2023/08/18 11:00:59;;;;;;;13.80;12.40;;;29.00;99.90;;;;;;4815969;29;20435;-80
2023/08/18 11:03:25;;;;;;;13.87;12.77;;;29.00;99.90;;;;;;4812859;29;21018;-80
2023/08/18 11:05:52;;;;;;;15.03;13.70;;;29.10;99.90;;;;;;4814354;29;21005;-85
2023/08/18 11:08:18;;;;;;;13.67;12.57;;;29.20;99.90;;;;;;4814328;29;20446;-81
2023/08/18 11:10:44;;;;;;;14.90;13.60;;;29.20;99.90;;;;;;4812411;29;20442;-85
2023/08/18 11:13:31;;;;;;;14.00;12.70;;;29.20;99.90;;;;;;4811452;29;20850;-80
2023/08/18 11:15:57;;;;;;;14.63;13.23;;;29.20;99.90;;;;;;4810232;29;20238;-85
2023/08/18 11:18:24;;;;;;;13.10;11.90;;;29.20;99.90;;;;;;4812474;29;20513;-80
2023/08/18 11:20:52;;;;;;;12.43;11.53;;;29.20;99.90;;;;;;4813232;29;20535;-85
2023/08/18 11:23:19;;;;;;;14.30;12.90;;;29.20;99.90;;;;;;4806513;29;20462;-85
2023/08/18 11:25:45;;;;;;;14.10;13.00;;;29.20;99.90;;;;;;4806777;29;20507;-81
2023/08/18 11:28:13;;;;;;;13.47;12.37;;;29.20;99.90;;;;;;4817078;29;20438;-85
2023/08/18 11:30:38;;;;;;;13.40;12.20;;;29.20;99.90;;;;;;4802102;29;20456;-85
2023/08/18 11:33:05;;;;;;;14.10;12.70;;;29.30;99.90;;;;;;4805643;29;20855;-80
2023/08/18 11:35:32;;;;;;;13.70;12.53;;;29.30;99.90;;;;;;4821917;29;20229;-85
2023/08/18 11:37:58;;;;;;;12.10;11.13;;;29.40;99.90;;;;;;4814230;29;20944;-85
2023/08/18 11:40:24;;;;;;;13.70;12.50;;;29.30;99.90;;;;;;4828281;29;20514;-80
2023/08/18 11:42:51;;;;;;;13.60;12.47;;;29.30;99.90;;;;;;4814861;29;20426;-80
2023/08/18 11:45:22;;;;;;;14.30;13.00;;;29.40;99.90;;;;;;4828026;29;21060;-84
2023/08/18 11:48:05;;;;;;;12.97;11.87;;;29.40;99.90;;;;;;4811189;29;20545;-85
2023/08/18 11:50:35;;;;;;;13.20;12.03;;;29.40;99.90;;;;;;4811793;29;20920;-80
2023/08/18 11:53:03;;;;;;;13.80;12.70;;;29.40;99.90;;;;;;4825727;29;20836;-85
2023/08/18 11:55:43;;;;;;;13.40;12.30;;;29.40;99.90;;;;;;4806468;29;20528;-85
2023/08/18 11:58:11;;;;;;;13.27;12.07;;;29.40;99.90;;;;;;4801079;29;20951;-80
2023/08/18 12:00:41;;;;;;;14.23;13.13;;;29.30;99.90;;;;;;4804531;29;20812;-80
2023/08/18 12:03:21;;;;;;;13.60;12.50;;;29.40;99.90;;;;;;4799981;29;20424;-85
2023/08/18 12:05:47;;;;;;;14.17;12.70;;;29.40;99.90;;;;;;4814667;29;20443;-84
2023/08/18 12:08:13;;;;;;;13.97;12.77;;;29.40;99.90;;;;;;4811847;29;20643;-80
2023/08/18 12:10:38;;;;;;;13.40;12.20;;;29.30;99.90;;;;;;4812326;29;20218;-85
2023/08/18 12:13:04;;;;;;;14.30;13.00;;;29.30;99.90;;;;;;4813871;29;20187;-85
2023/08/18 12:15:30;;;;;;;14.20;13.07;;;29.30;99.90;;;;;;4814025;29;20768;-85
2023/08/18 12:17:56;;;;;;;14.00;12.70;;;29.30;99.90;;;;;;4814424;29;20699;-85
2023/08/18 12:20:23;;;;;;;13.23;12.13;;;29.30;99.90;;;;;;4812832;29;20242;-85
2023/08/18 12:22:51;;;;;;;13.70;12.70;;;29.30;99.90;;;;;;4811592;29;20488;-80
2023/08/18 12:25:22;;;;;;;12.70;11.80;;;29.30;99.90;;;;;;4813194;29;21162;-80
2023/08/18 12:27:49;;;;;;;13.90;12.77;;;29.30;99.90;;;;;;4813736;29;20765;-84